McCarran International Airport
KLAS : now visible

Airfield :











YOU CAN JOIN US ON...

 
LOGIN :

Register | Disclaimer

   EN    FR    IT 

 









Legend :    VFR   Marginal VFR   IFR   Intensive IFR   Very Intensive IFR
Visi :
Ceiling :
>= 8 km
>= 3000ft
5 to 8 km
1000 to 3000 ft
1500m to 5 km
500 to 1000 ft
800 to 1500m
200 to 500 ft
< 800m
< 200 ft
Symbols :   Thunderstorms  Fog  Heavy snow  Heavy precipitations  Wind > 20 kt






- Airport Elevation : 2181 ft
- IATA code : LAS


KLAS - McCarran International

CURRENT METAR :
  • 291356Z 22005KT 10SM SCT250 07/M03 A3004 RMK AO2 SLP170 T00721028

EXPIRED METARs :
  • 291256Z 00000KT 10SM FEW250 08/M03 A3003 RMK AO2 SLP166 T00781028
  • 291156Z 21004KT 10SM CLR 07/M02 A3002 RMK AO2 SLP162 T00671022 10111 20067 55005

TAF KLAS
Valid from the 29 at 14:00 until the 30 at 18:00 UTC


291353Z 2914/3018 22007KT P6SM FEW150 SCT250
FM291500 33011G21KT P6SM SCT080 SCT150
FM291700 35018G28KT P6SM SCT080 SCT150
FM292200 02018G28KT P6SM FEW200
FM300400 34011KT P6SM SKC
FM300900 26007KT P6SM SCT250
FM301200 23005KT P6SM SCT250



MET'MAP, your aeronautical weather chart ! - Copyright ORBIFLY December 2007 - Disclaimer

ORBIFLY MET'MAP TEAM :

Programming & Development : Alexandra Zaïnal
Concept & original design : Baudouin d'Aumeries
Assistance for programming : Marc-Olivier Méhu
Technical & hardware support : Manuel Goepfert

Contact : metmap@orbifly.com




SOURCES & CREDITS :

   NOAA       Earth
Advisory